Ana Sayfa
METAR-TAF:

METAR-TAF

Havaalanları :

Paris-Charles de Gaulle Havalimanı

Paris-Charles de Gaulle, Fransa

Enlem: 49-01N, Boylam: 002-32E, yükseklik: 118 m

Güncel hava durumu gözlemi

Rapor saat 06:30 UTC de 21 dakika önce yapıldı.
Rüzgar değişken yönden 4 kt
Sıcaklık 6°C
Nem 70%
Basınç 1033 hPa
Görüş mesafesi 10 km veya daha fazla
3000 ft yükseklikte parçalı çok bulutlu

METAR: LFPG 260630Z VRB04KT 9999 BKN030 06/01 Q1033 NOSIG

Saat: 07:51 (06:51 UTC)

Tahmin

Rapor saat 05:00 UTC de 1 saat ve 51 dakika önce yapıldı.
Ayın 26'si saat 06 UTC'den ayın 27'si saat 12 UTC'ye kadar geçerli Tahmin
Rüzgar kuzey/kuzeydoğudan 10 kt
Görüş mesafesi 10 km veya daha fazla
3000 ft yükseklikte parçalı çok bulutlu
Olasılık 30% :
Geçici
ayın 27'si saat 04 UTC'den ayın 27'si saat 06 UTC'ye kadar
Görüş mesafesi: 3000 m
Pus

TAF: LFPG 260500Z 2606/2712 02010KT 9999 BKN030 TX12/2615Z TN02/2705Z PROB30 TEMPO 2704/2706 3000 BR

4.000'den fazla havaalanı için hava durumu gözlemleri ve tahminleri (METAR ve TAF raporları).

Kullanılabilir istasyonlar harita üzerinde sarı ve kırmızı noktalarla gösterilir.

İstasyonun adını görmek için fareyi noktanın üzerinde gezdirin.

Sonrasında hava gözlem ve tahminlerini görmek için tıklayın.

Haritayı değiştirmek için: yaklaştırmak için siyah artı işaretli yeşil düğmeye ve uzaklaştırmak için de eksi işaretli düğmeye hızla tıklayın; bitişik haritalar için yeşil okları kullanın.


METAR-TAF: